DLI weather

Lien Khuong Airport
Da Lat, Lam Dong Province, Vietnam

Public forecast

Using degrees Celsius for public forecast. Weather courtesy of forecast.io.

METAR (pilot weather report)

Closest report is Cam Ranh Airport, 52.2 nm (96.7 km) ENE. Retrieved 2019/04/22 03:30 UTC (27 minutes ago):

VVCR 220330Z 22006KT 180V260 9999 FEW017 35/21 Q1010 NOSIG

TAF (pilot weather forecast)

Forecast is more than 12 hours old.

Closest forecast is Cam Ranh Airport, 52.2 nm (96.7 km) ENE. Retrieved 2019/04/21 00:00 UTC (1 day ago):

TAF VVCR 212300Z 2200/2224 23007KT 9999 SCT017 BECMG 2203/2204 17012KT